Amak Swan — OWKO2 — position and weather

sailwx.info

Track history (hours):
 
Tides and Currents Weather Stations Pressure Air Temp Water Temp Dewpoint Dewpoint Depression Visibility Wind Speed Wind Dir Waves Ship Positions

Amak Swan

Last reported at 2018-Jun-23 01:24 UTC. Time now 2018-Jun-23 19:17 UTC.
Position N 37°35' W 009°52'.

Length 113 m; draft 7.1 m.

Type: Ship. MMSI: 220016000.

Date/timePositionNaut miles runAvg speedWind from/ knotsBaromVisibWave heightAir tempDewpointWater temp
2018-Jun-23 01:24N 37°35' W 009°52'511.7
2018-Jun-23 01:00N 37°39' W 009°53'611.8
2018-Jun-23 00:30N 37°45' W 009°55'611.8
2018-Jun-23 00:00N 37°50' W 009°57'612.2
2018-Jun-22 23:30N 37°56' W 009°59'612.3
2018-Jun-22 23:00N 38°02' W 010°01'612.0
2018-Jun-22 22:30N 38°08' W 010°03'612.3
2018-Jun-22 22:00N 38°14' W 010°04'612.3
2018-Jun-22 21:30N 38°20' W 010°05'612.0
2018-Jun-22 21:00N 38°26' W 010°07'612.1
2018-Jun-22 20:30N 38°32' W 010°09'612.0
2018-Jun-22 20:00N 38°38' W 010°11'612.0
2018-Jun-22 19:30N 38°44' W 010°12'612.0
2018-Jun-22 19:00N 38°50' W 010°12'611.9
2018-Jun-22 18:30N 38°56' W 010°12'611.6
2018-Jun-22 18:00N 39°02' W 010°12'611.7
2018-Jun-22 17:30N 39°07' W 010°12'711.9
2018-Jun-22 16:56N 39°14' W 010°12'1711.9
2018-Jun-22 15:31N 39°31' W 010°12'011.9
2018-Jun-22 15:29N 39°31' W 010°12'  
2018-Jun-20 10:30N 48°56' W 005°43'510.7
2018-Jun-20 10:00N 48°59' W 005°36'910.4
2018-Jun-20 09:07N 49°04' W 005°24'210.3
2018-Jun-20 08:57N 49°05' W 005°22'510.5
2018-Jun-20 08:27N 49°08' W 005°16'3310.7
2018-Jun-20 05:21N 49°25' W 004°33'1111.8
2018-Jun-20 04:23N 49°31' W 004°17'1911.9
2018-Jun-20 02:47N 49°40' W 003°51'411.5
2018-Jun-20 02:23N 49°42' W 003°45'711.2
2018-Jun-20 01:46N 49°45' W 003°35'310.9
2018-Jun-20 01:30N 49°46' W 003°31'610.6
2018-Jun-20 00:57N 49°49' W 003°23'510.3
2018-Jun-20 00:30N 49°51' W 003°17'510.2
2018-Jun-20 00:00N 49°53' W 003°10'5 9.9
2018-Jun-19 23:28N 49°56' W 003°03'510.1
2018-Jun-19 23:00N 49°58' W 002°56'510.3
2018-Jun-19 22:30N 50°00' W 002°49'510.7
2018-Jun-19 22:00N 50°02' W 002°41'611.2
2018-Jun-19 21:27N 50°04' W 002°32'6513.9
2018-Jun-19 16:45N 50°20' W 000°53'312.8
2018-Jun-19 16:29N 50°21' W 000°48'612.2
2018-Jun-19 16:00N 50°23' W 000°39'611.8
2018-Jun-19 15:30N 50°24' W 000°30'611.3
2018-Jun-19 15:00N 50°26' W 000°22'1010.6
2018-Jun-19 14:03N 50°28' W 000°07'1 9.9
2018-Jun-19 14:00N 50°28' W 000°06'6 9.8
2018-Jun-19 13:21N 50°30' E 000°04'5 9.8
2018-Jun-19 12:52N 50°31' E 000°11'4 9.8
2018-Jun-19 12:29N 50°32' E 000°17'510.2
2018-Jun-19 12:00N 50°33' E 000°24'510.8
2018-Jun-19 11:30N 50°35' E 000°33'611.5
2018-Jun-19 11:00N 50°37' E 000°41'612.3
2018-Jun-19 10:30N 50°41' E 000°49'713.1
2018-Jun-19 10:00N 50°45' E 000°57'713.3
2018-Jun-19 09:30N 50°48' E 001°06'713.3
2018-Jun-19 09:00N 50°52' E 001°14'612.8
2018-Jun-19 08:30N 50°57' E 001°21'612.1
2018-Jun-19 08:00N 51°01' E 001°27'510.8
2018-Jun-19 07:30N 51°05' E 001°33'5 9.9
2018-Jun-19 07:00N 51°09' E 001°39'5 9.5
2018-Jun-19 06:30N 51°13' E 001°44'5 9.2
2018-Jun-19 06:00N 51°16' E 001°48'4 8.6
2018-Jun-19 05:30N 51°20' E 001°52'4 8.9
2018-Jun-19 05:00N 51°24' E 001°55'4 8.3
2018-Jun-19 04:30N 51°25' E 002°01'5 9.4
2018-Jun-19 04:01N 51°23' E 002°08'510.0
2018-Jun-19 03:30N 51°21' E 002°15'5 9.1
2018-Jun-19 03:00N 51°22' E 002°23'5 9.6
2018-Jun-19 02:28N 51°23' E 002°31'510.1
2018-Jun-19 02:00N 51°23' E 002°38'5 8.9
2018-Jun-19 01:29N 51°22' E 002°45'510.4
2018-Jun-19 00:59N 51°23' E 002°54'511.5
2018-Jun-19 00:30N 51°24' E 003°02'611.0
2018-Jun-19 00:00N 51°24' E 003°11'611.8
2018-Jun-18 23:30N 51°25' E 003°20'612.5
2018-Jun-18 23:00N 51°25' E 003°30'510.2
2018-Jun-18 22:30N 51°26' E 003°38'612.0
2018-Jun-18 22:00N 51°22' E 003°45'612.8
2018-Jun-18 21:30N 51°22' E 003°55'510.3
2018-Jun-18 21:00N 51°26' E 004°02'510.9
2018-Jun-18 20:30N 51°23' E 004°09'4 8.5
2018-Jun-18 20:00N 51°21' E 004°15'510.2
2018-Jun-18 19:30N 51°17' E 004°20'0 0.5
2018-Jun-18 19:01N 51°17' E 004°20'0 0.7
2018-Jun-18 18:29N 51°16' E 004°20'0 0.4
2018-Jun-18 17:59N 51°16' E 004°20'1 2.1
2018-Jun-18 17:30N 51°15' E 004°21'1 1.3
2018-Jun-18 16:58N 51°15' E 004°22'0 0.0
2018-Jun-18 16:28N 51°15' E 004°22'0 0.0
2018-Jun-18 15:58N 51°15' E 004°22'0 0.0
2018-Jun-18 15:19N 51°15' E 004°22'0 0.0
2018-Jun-18 14:58N 51°15' E 004°22'0 0.0
2018-Jun-18 14:28N 51°15' E 004°22'0 0.0
2018-Jun-18 13:55N 51°15' E 004°22'0 0.0
2018-Jun-18 13:28N 51°15' E 004°22'0 0.0
2018-Jun-18 12:58N 51°15' E 004°22'0 0.0
2018-Jun-18 12:28N 51°15' E 004°22'0 0.0
2018-Jun-18 11:58N 51°15' E 004°22'0 0.0
2018-Jun-18 11:25N 51°15' E 004°22'0 0.0
2018-Jun-18 10:58N 51°15' E 004°22'0 0.0
2018-Jun-18 10:28N 51°15' E 004°22'0 0.0
2018-Jun-18 09:55N 51°15' E 004°22'0 0.0
2018-Jun-18 09:28N 51°15' E 004°22'0 0.0
2018-Jun-18 08:58N 51°15' E 004°22'0 0.0
2018-Jun-18 08:28N 51°15' E 004°22'0 0.0
2018-Jun-18 07:58N 51°15' E 004°22'0 0.0
2018-Jun-18 07:28N 51°15' E 004°22'0 0.0
2018-Jun-18 06:58N 51°15' E 004°22'0 0.0
2018-Jun-18 06:19N 51°15' E 004°22'0 0.0
2018-Jun-18 05:55N 51°15' E 004°22'0 0.0
2018-Jun-18 05:28N 51°15' E 004°22'0 0.0
2018-Jun-18 04:58N 51°15' E 004°22'0 0.0
2018-Jun-18 04:28N 51°15' E 004°22'0 0.0
2018-Jun-18 03:55N 51°15' E 004°22'0 0.0
2018-Jun-18 03:28N 51°15' E 004°22'0 0.0
2018-Jun-18 02:58N 51°15' E 004°22'0 0.0
2018-Jun-18 02:28N 51°15' E 004°22'0 0.0
2018-Jun-18 01:58N 51°15' E 004°22'0 0.0
2018-Jun-18 01:28N 51°15' E 004°22'0 0.0
2018-Jun-18 00:58N 51°15' E 004°22'0 0.0
2018-Jun-18 00:28N 51°15' E 004°22'0 0.0
2018-Jun-17 23:58N 51°15' E 004°22'0 0.0
2018-Jun-17 23:28N 51°15' E 004°22'0 0.0
2018-Jun-17 22:58N 51°15' E 004°22'0 0.0
2018-Jun-17 22:28N 51°15' E 004°22'0 0.0
2018-Jun-17 21:58N 51°15' E 004°22'0 0.0
2018-Jun-17 21:28N 51°15' E 004°22'0 0.0
2018-Jun-17 20:58N 51°15' E 004°22'0 0.0
2018-Jun-17 20:28N 51°15' E 004°22'0 0.0
2018-Jun-17 19:58N 51°15' E 004°22'0 0.0
2018-Jun-17 19:28N 51°15' E 004°22'0 0.0
2018-Jun-17 18:58N 51°15' E 004°22'0 0.0
2018-Jun-17 18:28N 51°15' E 004°22'1 1.1
2018-Jun-17 17:58N 51°15' E 004°22'0 0.0
2018-Jun-17 17:28N 51°15' E 004°22'0 0.0
2018-Jun-17 16:58N 51°15' E 004°22'0 0.0
2018-Jun-17 16:28N 51°15' E 004°22'0 0.0
2018-Jun-17 15:58N 51°15' E 004°22'0 0.0
2018-Jun-17 15:28N 51°15' E 004°22'0 0.0
2018-Jun-17 14:58N 51°15' E 004°22'0 0.0
2018-Jun-17 14:28N 51°15' E 004°22'0 0.0
2018-Jun-17 13:55N 51°15' E 004°22'0 0.0
2018-Jun-17 13:28N 51°15' E 004°22'0 0.0
2018-Jun-17 12:58N 51°15' E 004°22'0 0.0
2018-Jun-17 12:28N 51°15' E 004°22'0 0.0
2018-Jun-17 11:58N 51°15' E 004°22'0 0.0
2018-Jun-17 11:28N 51°15' E 004°22'0 0.0
2018-Jun-17 10:58N 51°15' E 004°22'0 0.0
2018-Jun-17 10:28N 51°15' E 004°22'0 0.0
2018-Jun-17 09:58N 51°15' E 004°22'0 0.0
2018-Jun-17 09:28N 51°15' E 004°22'0 0.0
2018-Jun-17 08:58N 51°15' E 004°22'0 0.0
2018-Jun-17 08:28N 51°15' E 004°22'0 0.0
2018-Jun-17 07:58N 51°15' E 004°22'0 0.0
2018-Jun-17 07:28N 51°15' E 004°22'0 0.0
2018-Jun-17 06:58N 51°15' E 004°22'0 0.0
2018-Jun-17 06:25N 51°15' E 004°22'0 0.0
2018-Jun-17 05:58N 51°15' E 004°22'0 0.0
2018-Jun-17 05:28N 51°15' E 004°22'0 0.0
2018-Jun-17 04:58N 51°15' E 004°22'0 0.0
2018-Jun-17 04:25N 51°15' E 004°22'0 0.0
2018-Jun-17 03:58N 51°15' E 004°22'0 0.0
2018-Jun-17 03:28N 51°15' E 004°22'0 0.0
2018-Jun-17 02:58N 51°15' E 004°22'0 0.0
2018-Jun-17 02:28N 51°15' E 004°22'0 0.0
2018-Jun-17 01:58N 51°15' E 004°22'0 0.0
2018-Jun-17 01:28N 51°15' E 004°22'0 0.0
2018-Jun-17 00:58N 51°15' E 004°22'0 0.0
2018-Jun-17 00:25N 51°15' E 004°22'0 0.0
2018-Jun-16 23:58N 51°15' E 004°22'0 0.0
2018-Jun-16 23:28N 51°15' E 004°22'0 0.5
2018-Jun-16 23:01N 51°16' E 004°21'2 4.3
2018-Jun-16 22:30N 51°18' E 004°20'2 3.3
2018-Jun-16 22:01N 51°19' E 004°19'0 0.0
2018-Jun-16 21:29N 51°19' E 004°19'0 0.0
2018-Jun-16 20:59N 51°19' E 004°19'0 0.0
2018-Jun-16 20:26N 51°19' E 004°19'0 0.0
2018-Jun-16 19:53N 51°19' E 004°19'0 0.0
2018-Jun-16 19:17N 51°19' E 004°19'0 0.0
2018-Jun-16 18:59N 51°19' E 004°19'0 0.0
2018-Jun-16 18:29N 51°19' E 004°19'0 0.0
2018-Jun-16 17:53N 51°19' E 004°19'0 0.0
2018-Jun-16 17:23N 51°19' E 004°19'0 0.0
2018-Jun-16 16:41N 51°19' E 004°19'0 0.0
2018-Jun-16 16:29N 51°19' E 004°19'0 0.0
2018-Jun-16 15:11N 51°19' E 004°19'0 0.0
2018-Jun-16 14:41N 51°19' E 004°19'0 0.0
2018-Jun-16 14:26N 51°19' E 004°19'0 0.0
2018-Jun-16 13:41N 51°19' E 004°19'0 0.0
2018-Jun-16 13:29N 51°19' E 004°19'0 0.0
2018-Jun-16 12:59N 51°19' E 004°19'0 0.0
2018-Jun-16 12:29N 51°19' E 004°19'0 0.0
2018-Jun-16 11:53N 51°19' E 004°19'0 0.0
2018-Jun-16 11:29N 51°19' E 004°19'0 0.0
2018-Jun-16 10:59N 51°19' E 004°19'0 0.0
2018-Jun-16 10:20N 51°19' E 004°19'0 0.0
2018-Jun-16 09:59N 51°19' E 004°19'0 0.0
2018-Jun-16 09:11N 51°19' E 004°19'0 0.0
2018-Jun-16 08:05N 51°19' E 004°19'0 0.0
2018-Jun-16 07:59N 51°19' E 004°19'0 0.0
2018-Jun-16 07:20N 51°19' E 004°19'0 0.0
2018-Jun-16 06:59N 51°19' E 004°19'0 0.0
2018-Jun-16 06:29N 51°19' E 004°19'0 0.0
2018-Jun-16 05:59N 51°19' E 004°19'0 0.0
2018-Jun-16 05:29N 51°19' E 004°19'0 0.0
2018-Jun-16 04:59N 51°19' E 004°19'0 0.0
2018-Jun-16 04:23N 51°19' E 004°19'0 0.0
2018-Jun-16 03:59N 51°19' E 004°19'0 0.0
2018-Jun-16 03:29N 51°19' E 004°19'0 0.0
2018-Jun-16 02:59N 51°19' E 004°19'0 0.0
2018-Jun-16 02:26N 51°19' E 004°19'0 0.0
2018-Jun-16 01:47N 51°19' E 004°19'0 0.0
2018-Jun-16 01:30N 51°19' E 004°19'1 2.6
2018-Jun-16 01:00N 51°20' E 004°18'1 1.4
2018-Jun-16 00:30N 51°21' E 004°17'0 0.0
2018-Jun-16 00:00N 51°21' E 004°17'0 0.0
2018-Jun-15 23:30N 51°21' E 004°17'1 1.5
2018-Jun-15 23:00N 51°21' E 004°16'2 4.6
2018-Jun-15 22:30N 51°22' E 004°13'2 4.4
2018-Jun-15 22:00N 51°23' E 004°10'4 8.4
2018-Jun-15 21:30N 51°22' E 004°03'5 9.0
2018-Jun-15 21:00N 51°26' E 003°59'510.2
2018-Jun-15 20:30N 51°22' E 003°54'5 9.5
2018-Jun-15 20:00N 51°21' E 003°47'510.2
2018-Jun-15 19:30N 51°25' E 003°41'5 9.3
2018-Jun-15 19:00N 51°26' E 003°34'5 9.2
2018-Jun-15 18:30N 51°30' E 003°29'510.7
2018-Jun-15 18:00N 51°34' E 003°24'611.6
2018-Jun-15 17:30N 51°39' E 003°20'611.9
2018-Jun-15 17:00N 51°44' E 003°14'5 9.9
2018-Jun-15 16:30N 51°47' E 003°08'3 6.6
2018-Jun-15 16:00N 51°47' E 003°03'1 1.2
2018-Jun-15 15:30N 51°47' E 003°04'0 0.9
2018-Jun-15 14:59N 51°47' E 003°05'1 1.4
2018-Jun-15 14:30N 51°47' E 003°06'1 2.4
2018-Jun-15 14:00N 51°47' E 003°08'2 4.7
2018-Jun-15 13:30N 51°49' E 003°07'712.9
2018-Jun-15 13:00N 51°53' E 002°58'613.0
2018-Jun-15 12:30N 51°56' E 002°49'713.3
2018-Jun-15 12:00N 52°02' E 002°44'713.4
2018-Jun-15 11:29N 52°09' E 002°43'814.5
2018-Jun-15 10:54N 52°17' E 002°46'1 2.9
2018-Jun-15 10:30N 52°18' E 002°47'1 2.0
2018-Jun-15 10:00N 52°17' E 002°46'1 1.9
2018-Jun-15 09:30N 52°16' E 002°46'1 1.9
2018-Jun-15 09:00N 52°15' E 002°45'1 2.0
2018-Jun-15 08:29N 52°14' E 002°44'1 2.3
2018-Jun-15 07:58N 52°14' E 002°42'2 4.6
2018-Jun-15 07:30N 52°16' E 002°43'4 6.8
2018-Jun-15 06:59N 52°19' E 002°46'5 7.1
2018-Jun-15 06:20N 52°23' E 002°49'2 6.6
2018-Jun-15 06:00N 52°25' E 002°50'3 6.3
2018-Jun-15 05:29N 52°28' E 002°52'3 5.8
2018-Jun-15 04:59N 52°31' E 002°54'3 5.5
2018-Jun-15 04:28N 52°33' E 002°56'3 5.4
2018-Jun-15 03:52N 52°36' E 002°59'2 5.3
2018-Jun-15 03:30N 52°38' E 003°01'3 5.1
2018-Jun-15 02:55N 52°40' E 003°03'2 5.2
2018-Jun-15 02:28N 52°42' E 003°05'5 5.8
2018-Jun-15 01:34N 52°47' E 003°09'0 6.3
2018-Jun-15 01:30N 52°47' E 003°09'9 0.6
2018-Jun-14 10:56N 52°54' E 003°20'3 6.4
2018-Jun-14 10:30N 52°51' E 003°18'3 6.1
2018-Jun-14 09:57N 52°48' E 003°15'4 6.2
2018-Jun-14 09:21N 52°45' E 003°12'3 6.0
2018-Jun-14 08:52N 52°42' E 003°09'4 5.8
2018-Jun-14 08:12N 52°39' E 003°06'1 5.9
2018-Jun-14 08:00N 52°38' E 003°05'3 6.0
2018-Jun-14 07:29N 52°35' E 003°03'3 6.3
2018-Jun-14 07:00N 52°33' E 003°00'3 6.7
2018-Jun-14 06:30N 52°30' E 002°58'4 7.3
2018-Jun-14 06:00N 52°27' E 002°55'4 7.8
2018-Jun-14 05:28N 52°23' E 002°51'4 8.1
2018-Jun-14 05:00N 52°20' E 002°48'5 8.5
2018-Jun-14 04:27N 52°16' E 002°45'3 6.7
2018-Jun-14 04:00N 52°13' E 002°41'3 5.2
2018-Jun-14 03:30N 52°16' E 002°43'3 5.1
2018-Jun-14 03:00N 52°18' E 002°45'2 4.7
2018-Jun-14 02:30N 52°20' E 002°47'3 5.0
2018-Jun-14 01:56N 52°23' E 002°49'2 5.1
2018-Jun-14 01:29N 52°24' E 002°51'3 5.6
2018-Jun-14 00:59N 52°27' E 002°53'3 5.6
2018-Jun-14 00:30N 52°29' E 002°56'3 6.4
2018-Jun-13 23:58N 52°32' E 002°59'3 6.9
2018-Jun-13 23:27N 52°35' E 003°01'4 7.3
2018-Jun-13 22:57N 52°39' E 003°02'3 7.7
2018-Jun-13 22:30N 52°42' E 003°04'5 8.1
2018-Jun-13 21:56N 52°46' E 003°08'10 8.3
2018-Jun-13 20:44N 52°55' E 003°15'  
Track history (hours):
 
Tides and Currents Weather Stations Pressure Air Temp Water Temp Dewpoint Dewpoint Depression Visibility Wind Speed Wind Dir Waves Ship Positions

Amak Swan

Last reported at 2018-Jun-23 01:24 UTC. Time now 2018-Jun-23 19:17 UTC.
Position N 37°35' W 009°52'.

Length 113 m; draft 7.1 m.

Type: Ship. MMSI: 220016000.

Date/timePositionNaut miles runAvg speedWind from/ knotsBaromVisibWave heightAir tempDewpointWater temp
2018-Jun-23 01:24N 37°35' W 009°52'511.7
2018-Jun-23 01:00N 37°39' W 009°53'611.8
2018-Jun-23 00:30N 37°45' W 009°55'611.8
2018-Jun-23 00:00N 37°50' W 009°57'612.2
2018-Jun-22 23:30N 37°56' W 009°59'612.3
2018-Jun-22 23:00N 38°02' W 010°01'612.0
2018-Jun-22 22:30N 38°08' W 010°03'612.3
2018-Jun-22 22:00N 38°14' W 010°04'612.3
2018-Jun-22 21:30N 38°20' W 010°05'612.0
2018-Jun-22 21:00N 38°26' W 010°07'612.1
2018-Jun-22 20:30N 38°32' W 010°09'612.0
2018-Jun-22 20:00N 38°38' W 010°11'612.0
2018-Jun-22 19:30N 38°44' W 010°12'612.0
2018-Jun-22 19:00N 38°50' W 010°12'611.9
2018-Jun-22 18:30N 38°56' W 010°12'611.6
2018-Jun-22 18:00N 39°02' W 010°12'611.7
2018-Jun-22 17:30N 39°07' W 010°12'711.9
2018-Jun-22 16:56N 39°14' W 010°12'1711.9
2018-Jun-22 15:31N 39°31' W 010°12'011.9
2018-Jun-22 15:29N 39°31' W 010°12'  
2018-Jun-20 10:30N 48°56' W 005°43'510.7
2018-Jun-20 10:00N 48°59' W 005°36'910.4
2018-Jun-20 09:07N 49°04' W 005°24'210.3
2018-Jun-20 08:57N 49°05' W 005°22'510.5
2018-Jun-20 08:27N 49°08' W 005°16'3310.7
2018-Jun-20 05:21N 49°25' W 004°33'1111.8
2018-Jun-20 04:23N 49°31' W 004°17'1911.9
2018-Jun-20 02:47N 49°40' W 003°51'411.5
2018-Jun-20 02:23N 49°42' W 003°45'711.2
2018-Jun-20 01:46N 49°45' W 003°35'310.9
2018-Jun-20 01:30N 49°46' W 003°31'610.6
2018-Jun-20 00:57N 49°49' W 003°23'510.3
2018-Jun-20 00:30N 49°51' W 003°17'510.2
2018-Jun-20 00:00N 49°53' W 003°10'5 9.9
2018-Jun-19 23:28N 49°56' W 003°03'510.1
2018-Jun-19 23:00N 49°58' W 002°56'510.3
2018-Jun-19 22:30N 50°00' W 002°49'510.7
2018-Jun-19 22:00N 50°02' W 002°41'611.2
2018-Jun-19 21:27N 50°04' W 002°32'6513.9
2018-Jun-19 16:45N 50°20' W 000°53'312.8
2018-Jun-19 16:29N 50°21' W 000°48'612.2
2018-Jun-19 16:00N 50°23' W 000°39'611.8
2018-Jun-19 15:30N 50°24' W 000°30'611.3
2018-Jun-19 15:00N 50°26' W 000°22'1010.6
2018-Jun-19 14:03N 50°28' W 000°07'1 9.9
2018-Jun-19 14:00N 50°28' W 000°06'6 9.8
2018-Jun-19 13:21N 50°30' E 000°04'5 9.8
2018-Jun-19 12:52N 50°31' E 000°11'4 9.8
2018-Jun-19 12:29N 50°32' E 000°17'510.2
2018-Jun-19 12:00N 50°33' E 000°24'510.8
2018-Jun-19 11:30N 50°35' E 000°33'611.5
2018-Jun-19 11:00N 50°37' E 000°41'612.3
2018-Jun-19 10:30N 50°41' E 000°49'713.1
2018-Jun-19 10:00N 50°45' E 000°57'713.3
2018-Jun-19 09:30N 50°48' E 001°06'713.3
2018-Jun-19 09:00N 50°52' E 001°14'612.8
2018-Jun-19 08:30N 50°57' E 001°21'612.1
2018-Jun-19 08:00N 51°01' E 001°27'510.8
2018-Jun-19 07:30N 51°05' E 001°33'5 9.9
2018-Jun-19 07:00N 51°09' E 001°39'5 9.5
2018-Jun-19 06:30N 51°13' E 001°44'5 9.2
2018-Jun-19 06:00N 51°16' E 001°48'4 8.6
2018-Jun-19 05:30N 51°20' E 001°52'4 8.9
2018-Jun-19 05:00N 51°24' E 001°55'4 8.3
2018-Jun-19 04:30N 51°25' E 002°01'5 9.4
2018-Jun-19 04:01N 51°23' E 002°08'510.0
2018-Jun-19 03:30N 51°21' E 002°15'5 9.1
2018-Jun-19 03:00N 51°22' E 002°23'5 9.6
2018-Jun-19 02:28N 51°23' E 002°31'510.1
2018-Jun-19 02:00N 51°23' E 002°38'5 8.9
2018-Jun-19 01:29N 51°22' E 002°45'510.4
2018-Jun-19 00:59N 51°23' E 002°54'511.5
2018-Jun-19 00:30N 51°24' E 003°02'611.0
2018-Jun-19 00:00N 51°24' E 003°11'611.8
2018-Jun-18 23:30N 51°25' E 003°20'612.5
2018-Jun-18 23:00N 51°25' E 003°30'510.2
2018-Jun-18 22:30N 51°26' E 003°38'612.0
2018-Jun-18 22:00N 51°22' E 003°45'612.8
2018-Jun-18 21:30N 51°22' E 003°55'510.3
2018-Jun-18 21:00N 51°26' E 004°02'510.9
2018-Jun-18 20:30N 51°23' E 004°09'4 8.5
2018-Jun-18 20:00N 51°21' E 004°15'510.2
2018-Jun-18 19:30N 51°17' E 004°20'0 0.5
2018-Jun-18 19:01N 51°17' E 004°20'0 0.7
2018-Jun-18 18:29N 51°16' E 004°20'0 0.4
2018-Jun-18 17:59N 51°16' E 004°20'1 2.1
2018-Jun-18 17:30N 51°15' E 004°21'1 1.3
2018-Jun-18 16:58N 51°15' E 004°22'0 0.0
2018-Jun-18 16:28N 51°15' E 004°22'0 0.0
2018-Jun-18 15:58N 51°15' E 004°22'0 0.0
2018-Jun-18 15:19N 51°15' E 004°22'0 0.0
2018-Jun-18 14:58N 51°15' E 004°22'0 0.0
2018-Jun-18 14:28N 51°15' E 004°22'0 0.0
2018-Jun-18 13:55N 51°15' E 004°22'0 0.0
2018-Jun-18 13:28N 51°15' E 004°22'0 0.0
2018-Jun-18 12:58N 51°15' E 004°22'0 0.0
2018-Jun-18 12:28N 51°15' E 004°22'0 0.0
2018-Jun-18 11:58N 51°15' E 004°22'0 0.0
2018-Jun-18 11:25N 51°15' E 004°22'0 0.0
2018-Jun-18 10:58N 51°15' E 004°22'0 0.0
2018-Jun-18 10:28N 51°15' E 004°22'0 0.0
2018-Jun-18 09:55N 51°15' E 004°22'0 0.0
2018-Jun-18 09:28N 51°15' E 004°22'0 0.0
2018-Jun-18 08:58N 51°15' E 004°22'0 0.0
2018-Jun-18 08:28N 51°15' E 004°22'0 0.0
2018-Jun-18 07:58N 51°15' E 004°22'0 0.0
2018-Jun-18 07:28N 51°15' E 004°22'0 0.0
2018-Jun-18 06:58N 51°15' E 004°22'0 0.0
2018-Jun-18 06:19N 51°15' E 004°22'0 0.0
2018-Jun-18 05:55N 51°15' E 004°22'0 0.0
2018-Jun-18 05:28N 51°15' E 004°22'0 0.0
2018-Jun-18 04:58N 51°15' E 004°22'0 0.0
2018-Jun-18 04:28N 51°15' E 004°22'0 0.0
2018-Jun-18 03:55N 51°15' E 004°22'0 0.0
2018-Jun-18 03:28N 51°15' E 004°22'0 0.0
2018-Jun-18 02:58N 51°15' E 004°22'0 0.0
2018-Jun-18 02:28N 51°15' E 004°22'0 0.0
2018-Jun-18 01:58N 51°15' E 004°22'0 0.0
2018-Jun-18 01:28N 51°15' E 004°22'0 0.0
2018-Jun-18 00:58N 51°15' E 004°22'0 0.0
2018-Jun-18 00:28N 51°15' E 004°22'0 0.0
2018-Jun-17 23:58N 51°15' E 004°22'0 0.0
2018-Jun-17 23:28N 51°15' E 004°22'0 0.0
2018-Jun-17 22:58N 51°15' E 004°22'0 0.0
2018-Jun-17 22:28N 51°15' E 004°22'0 0.0
2018-Jun-17 21:58N 51°15' E 004°22'0 0.0
2018-Jun-17 21:28N 51°15' E 004°22'0 0.0
2018-Jun-17 20:58N 51°15' E 004°22'0 0.0
2018-Jun-17 20:28N 51°15' E 004°22'0 0.0
2018-Jun-17 19:58N 51°15' E 004°22'0 0.0
2018-Jun-17 19:28N 51°15' E 004°22'0 0.0
2018-Jun-17 18:58N 51°15' E 004°22'0 0.0
2018-Jun-17 18:28N 51°15' E 004°22'1 1.1
2018-Jun-17 17:58N 51°15' E 004°22'0 0.0
2018-Jun-17 17:28N 51°15' E 004°22'0 0.0
2018-Jun-17 16:58N 51°15' E 004°22'0 0.0
2018-Jun-17 16:28N 51°15' E 004°22'0 0.0
2018-Jun-17 15:58N 51°15' E 004°22'0 0.0
2018-Jun-17 15:28N 51°15' E 004°22'0 0.0
2018-Jun-17 14:58N 51°15' E 004°22'0 0.0
2018-Jun-17 14:28N 51°15' E 004°22'0 0.0
2018-Jun-17 13:55N 51°15' E 004°22'0 0.0
2018-Jun-17 13:28N 51°15' E 004°22'0 0.0
2018-Jun-17 12:58N 51°15' E 004°22'0 0.0
2018-Jun-17 12:28N 51°15' E 004°22'0 0.0
2018-Jun-17 11:58N 51°15' E 004°22'0 0.0
2018-Jun-17 11:28N 51°15' E 004°22'0 0.0
2018-Jun-17 10:58N 51°15' E 004°22'0 0.0
2018-Jun-17 10:28N 51°15' E 004°22'0 0.0
2018-Jun-17 09:58N 51°15' E 004°22'0 0.0
2018-Jun-17 09:28N 51°15' E 004°22'0 0.0
2018-Jun-17 08:58N 51°15' E 004°22'0 0.0
2018-Jun-17 08:28N 51°15' E 004°22'0 0.0
2018-Jun-17 07:58N 51°15' E 004°22'0 0.0
2018-Jun-17 07:28N 51°15' E 004°22'0 0.0
2018-Jun-17 06:58N 51°15' E 004°22'0 0.0
2018-Jun-17 06:25N 51°15' E 004°22'0 0.0
2018-Jun-17 05:58N 51°15' E 004°22'0 0.0
2018-Jun-17 05:28N 51°15' E 004°22'0 0.0
2018-Jun-17 04:58N 51°15' E 004°22'0 0.0
2018-Jun-17 04:25N 51°15' E 004°22'0 0.0
2018-Jun-17 03:58N 51°15' E 004°22'0 0.0
2018-Jun-17 03:28N 51°15' E 004°22'0 0.0
2018-Jun-17 02:58N 51°15' E 004°22'0 0.0
2018-Jun-17 02:28N 51°15' E 004°22'0 0.0
2018-Jun-17 01:58N 51°15' E 004°22'0 0.0
2018-Jun-17 01:28N 51°15' E 004°22'0 0.0
2018-Jun-17 00:58N 51°15' E 004°22'0 0.0
2018-Jun-17 00:25N 51°15' E 004°22'0 0.0
2018-Jun-16 23:58N 51°15' E 004°22'0 0.0
2018-Jun-16 23:28N 51°15' E 004°22'0 0.5
2018-Jun-16 23:01N 51°16' E 004°21'2 4.3
2018-Jun-16 22:30N 51°18' E 004°20'2 3.3
2018-Jun-16 22:01N 51°19' E 004°19'0 0.0
2018-Jun-16 21:29N 51°19' E 004°19'0 0.0
2018-Jun-16 20:59N 51°19' E 004°19'0 0.0
2018-Jun-16 20:26N 51°19' E 004°19'0 0.0
2018-Jun-16 19:53N 51°19' E 004°19'0 0.0
2018-Jun-16 19:17N 51°19' E 004°19'0 0.0
2018-Jun-16 18:59N 51°19' E 004°19'0 0.0
2018-Jun-16 18:29N 51°19' E 004°19'0 0.0
2018-Jun-16 17:53N 51°19' E 004°19'0 0.0
2018-Jun-16 17:23N 51°19' E 004°19'0 0.0
2018-Jun-16 16:41N 51°19' E 004°19'0 0.0
2018-Jun-16 16:29N 51°19' E 004°19'0 0.0
2018-Jun-16 15:11N 51°19' E 004°19'0 0.0
2018-Jun-16 14:41N 51°19' E 004°19'0 0.0
2018-Jun-16 14:26N 51°19' E 004°19'0 0.0
2018-Jun-16 13:41N 51°19' E 004°19'0 0.0
2018-Jun-16 13:29N 51°19' E 004°19'0 0.0
2018-Jun-16 12:59N 51°19' E 004°19'0 0.0
2018-Jun-16 12:29N 51°19' E 004°19'0 0.0
2018-Jun-16 11:53N 51°19' E 004°19'0 0.0
2018-Jun-16 11:29N 51°19' E 004°19'0 0.0
2018-Jun-16 10:59N 51°19' E 004°19'0 0.0
2018-Jun-16 10:20N 51°19' E 004°19'0 0.0
2018-Jun-16 09:59N 51°19' E 004°19'0 0.0
2018-Jun-16 09:11N 51°19' E 004°19'0 0.0
2018-Jun-16 08:05N 51°19' E 004°19'0 0.0
2018-Jun-16 07:59N 51°19' E 004°19'0 0.0
2018-Jun-16 07:20N 51°19' E 004°19'0 0.0
2018-Jun-16 06:59N 51°19' E 004°19'0 0.0
2018-Jun-16 06:29N 51°19' E 004°19'0 0.0
2018-Jun-16 05:59N 51°19' E 004°19'0 0.0
2018-Jun-16 05:29N 51°19' E 004°19'0 0.0
2018-Jun-16 04:59N 51°19' E 004°19'0 0.0
2018-Jun-16 04:23N 51°19' E 004°19'0 0.0
2018-Jun-16 03:59N 51°19' E 004°19'0 0.0
2018-Jun-16 03:29N 51°19' E 004°19'0 0.0
2018-Jun-16 02:59N 51°19' E 004°19'0 0.0
2018-Jun-16 02:26N 51°19' E 004°19'0 0.0
2018-Jun-16 01:47N 51°19' E 004°19'0 0.0
2018-Jun-16 01:30N 51°19' E 004°19'1 2.6
2018-Jun-16 01:00N 51°20' E 004°18'1 1.4
2018-Jun-16 00:30N 51°21' E 004°17'0 0.0
2018-Jun-16 00:00N 51°21' E 004°17'0 0.0
2018-Jun-15 23:30N 51°21' E 004°17'1 1.5
2018-Jun-15 23:00N 51°21' E 004°16'2 4.6
2018-Jun-15 22:30N 51°22' E 004°13'2 4.4
2018-Jun-15 22:00N 51°23' E 004°10'4 8.4
2018-Jun-15 21:30N 51°22' E 004°03'5 9.0
2018-Jun-15 21:00N 51°26' E 003°59'510.2
2018-Jun-15 20:30N 51°22' E 003°54'5 9.5
2018-Jun-15 20:00N 51°21' E 003°47'510.2
2018-Jun-15 19:30N 51°25' E 003°41'5 9.3
2018-Jun-15 19:00N 51°26' E 003°34'5 9.2
2018-Jun-15 18:30N 51°30' E 003°29'510.7
2018-Jun-15 18:00N 51°34' E 003°24'611.6
2018-Jun-15 17:30N 51°39' E 003°20'611.9
2018-Jun-15 17:00N 51°44' E 003°14'5 9.9
2018-Jun-15 16:30N 51°47' E 003°08'3 6.6
2018-Jun-15 16:00N 51°47' E 003°03'1 1.2
2018-Jun-15 15:30N 51°47' E 003°04'0 0.9
2018-Jun-15 14:59N 51°47' E 003°05'1 1.4
2018-Jun-15 14:30N 51°47' E 003°06'1 2.4
2018-Jun-15 14:00N 51°47' E 003°08'2 4.7
2018-Jun-15 13:30N 51°49' E 003°07'712.9
2018-Jun-15 13:00N 51°53' E 002°58'613.0
2018-Jun-15 12:30N 51°56' E 002°49'713.3
2018-Jun-15 12:00N 52°02' E 002°44'713.4
2018-Jun-15 11:29N 52°09' E 002°43'814.5
2018-Jun-15 10:54N 52°17' E 002°46'1 2.9
2018-Jun-15 10:30N 52°18' E 002°47'1 2.0
2018-Jun-15 10:00N 52°17' E 002°46'1 1.9
2018-Jun-15 09:30N 52°16' E 002°46'1 1.9
2018-Jun-15 09:00N 52°15' E 002°45'1 2.0
2018-Jun-15 08:29N 52°14' E 002°44'1 2.3
2018-Jun-15 07:58N 52°14' E 002°42'2 4.6
2018-Jun-15 07:30N 52°16' E 002°43'4 6.8
2018-Jun-15 06:59N 52°19' E 002°46'5 7.1
2018-Jun-15 06:20N 52°23' E 002°49'2 6.6
2018-Jun-15 06:00N 52°25' E 002°50'3 6.3
2018-Jun-15 05:29N 52°28' E 002°52'3 5.8
2018-Jun-15 04:59N 52°31' E 002°54'3 5.5
2018-Jun-15 04:28N 52°33' E 002°56'3 5.4
2018-Jun-15 03:52N 52°36' E 002°59'2 5.3
2018-Jun-15 03:30N 52°38' E 003°01'3 5.1
2018-Jun-15 02:55N 52°40' E 003°03'2 5.2
2018-Jun-15 02:28N 52°42' E 003°05'5 5.8
2018-Jun-15 01:34N 52°47' E 003°09'0 6.3
2018-Jun-15 01:30N 52°47' E 003°09'9 0.6
2018-Jun-14 10:56N 52°54' E 003°20'3 6.4
2018-Jun-14 10:30N 52°51' E 003°18'3 6.1
2018-Jun-14 09:57N 52°48' E 003°15'4 6.2
2018-Jun-14 09:21N 52°45' E 003°12'3 6.0
2018-Jun-14 08:52N 52°42' E 003°09'4 5.8
2018-Jun-14 08:12N 52°39' E 003°06'1 5.9
2018-Jun-14 08:00N 52°38' E 003°05'3 6.0
2018-Jun-14 07:29N 52°35' E 003°03'3 6.3
2018-Jun-14 07:00N 52°33' E 003°00'3 6.7
2018-Jun-14 06:30N 52°30' E 002°58'4 7.3
2018-Jun-14 06:00N 52°27' E 002°55'4 7.8
2018-Jun-14 05:28N 52°23' E 002°51'4 8.1
2018-Jun-14 05:00N 52°20' E 002°48'5 8.5
2018-Jun-14 04:27N 52°16' E 002°45'3 6.7
2018-Jun-14 04:00N 52°13' E 002°41'3 5.2
2018-Jun-14 03:30N 52°16' E 002°43'3 5.1
2018-Jun-14 03:00N 52°18' E 002°45'2 4.7
2018-Jun-14 02:30N 52°20' E 002°47'3 5.0
2018-Jun-14 01:56N 52°23' E 002°49'2 5.1
2018-Jun-14 01:29N 52°24' E 002°51'3 5.6
2018-Jun-14 00:59N 52°27' E 002°53'3 5.6
2018-Jun-14 00:30N 52°29' E 002°56'3 6.4
2018-Jun-13 23:58N 52°32' E 002°59'3 6.9
2018-Jun-13 23:27N 52°35' E 003°01'4 7.3
2018-Jun-13 22:57N 52°39' E 003°02'3 7.7
2018-Jun-13 22:30N 52°42' E 003°04'5 8.1
2018-Jun-13 21:56N 52°46' E 003°08'10 8.3
2018-Jun-13 20:44N 52°55' E 003°15'  

Dump ship's entire track history